Harbine, Nebraska
Current Conditions -  °F | °C
As of 2:35 AM on Sunday 23 Nov 2014 (Local Time) from KBIE Reporting Station
Overcast Overcast  
Wind Chill: 13°   Ceiling: 1800
Heat Index: 13°   Visibility: 10mi
Dew Point: 10°   Wind: 12mph
Humidity: 84%   Direction: 190°S
Pressure: 29.52"   Gusts: NA
Location:  40.219°N, 97.0292°W
Report Text: KBIE 230835Z AUTO 19010KT 10SM OVC018 13/10 A2952 RMK AO2 T01260100
Loading
Personal Weather Stations






























Interactive Weather Map New forecast layout! Learn more

10-Day Weather Forecast

Advertisements
Track Severe Weather on mobile